logo
Search for airport 
image banner adimage banner adimage banner ad
image banner ad

NWWC - Ile Art Waala

Located in Waala, New Caledonia

ICAO - NWWC, IATA - BMY

Data provided by Airmate  

General information

Coordinates: S19°43'14" E163°39'40"
Elevation is 305 feet MSL.
Magnetic variation is 11.32° East
View others Airports in (unassigned)

Operational data

Special qualification required
Current time UTC:
Current local time:
Weather at : - ( 0 km )
METAR: CYSC 202304Z AUTO 24011KT 9SM -RA SCT035 SCT250 04/02 A2980 RMK SLP100
View NOTAMs / SUP AIP / TFR affecting this airport [VIEW]
Communications frequencies: [VIEW]

Runways:

RWY identifierQFULength (ft)Width (ft)SurfaceLDA (ft)
09107°196966ASPH1772
27287°196966ASPH1772

Airport contact information

Address: Waala New Caledonia

Satellite view of NWWC